ADDS METAR Data INFO
IDs: Format: Raw Decoded Include TAF

Data at: 1322 UTC 19 Jul 2018

KRZL 191315Z AUTO 12007KT 10SM CLR 21/12 A3002 RMK AO2
KRZL 191255Z AUTO 10006KT 10SM CLR 20/12 A3003 RMK AO2
KRZL 191235Z AUTO 11005KT 10SM CLR 18/12 A3003 RMK AO2
KRZL 191215Z AUTO 10003KT 10SM CLR 17/12 A3003 RMK AO2
KRZL 191155Z AUTO 04003KT 10SM CLR 16/12 A3003 RMK AO2
KRZL 191135Z AUTO 00000KT 10SM CLR 16/11 A3002 RMK AO2
KRZL 191115Z AUTO 05003KT 10SM CLR 15/11 A3001 RMK AO2
KRZL 191055Z AUTO 06004KT 10SM CLR 14/10 A3001 RMK AO2
KRZL 191035Z AUTO 06004KT 10SM CLR 13/10 A3002 RMK AO2
KRZL 191015Z AUTO 06003KT 10SM CLR 13/10 A3002 RMK AO2
KRZL 190955Z AUTO 05003KT 10SM CLR 13/10 A3002 RMK AO2
KRZL 190935Z AUTO 05003KT 10SM CLR 13/10 A3002 RMK AO2
KRZL 190915Z AUTO 06003KT 10SM CLR 13/10 A3003 RMK AO2
KRZL 190855Z AUTO 00000KT 10SM CLR 13/10 A3003 RMK AO2
KRZL 190835Z AUTO 06003KT 10SM CLR 14/10 A3003 RMK AO2
KRZL 190815Z AUTO 00000KT 10SM CLR 13/10 A3003 RMK AO2
KRZL 190755Z AUTO 00000KT 10SM CLR 13/10 A3003 RMK AO2
KRZL 190735Z AUTO 00000KT 10SM CLR 13/10 A3003 RMK AO2
KRZL 190715Z AUTO 00000KT 10SM CLR 13/10 A3004 RMK AO2
KRZL 190655Z AUTO 00000KT 10SM CLR 13/10 A3004 RMK AO2
KRZL 190635Z AUTO 00000KT 10SM CLR 13/10 A3005 RMK AO2
KRZL 190615Z AUTO 00000KT 10SM CLR 13/10 A3005 RMK AO2
KRZL 190555Z AUTO 00000KT 10SM CLR 13/10 A3005 RMK AO2
KRZL 190535Z AUTO 00000KT 10SM CLR 15/10 A3005 RMK AO2
KRZL 190515Z AUTO 03003KT 10SM CLR 15/10 A3006 RMK AO2
KRZL 190455Z AUTO 02003KT 10SM CLR 15/10 A3006 RMK AO2
KRZL 190435Z AUTO 02003KT 10SM CLR 15/10 A3005 RMK AO2
KRZL 190415Z AUTO 03003KT 10SM CLR 15/10 A3005 RMK AO2
KRZL 190355Z AUTO 03003KT 10SM CLR 16/10 A3005 RMK AO2
KRZL 190335Z AUTO 04005KT 10SM CLR 16/10 A3006 RMK AO2
KRZL 190315Z AUTO 04004KT 10SM CLR 16/10 A3006 RMK AO2
KRZL 190255Z AUTO 02003KT 10SM CLR 17/09 A3006 RMK AO2
KRZL 190235Z AUTO 01003KT 10SM CLR 17/09 A3006 RMK AO2
KRZL 190215Z AUTO 01004KT 10SM CLR 18/08 A3006 RMK AO2
KRZL 190155Z AUTO 36004KT 10SM CLR 18/08 A3005 RMK AO2
KRZL 190135Z AUTO 35005KT 10SM CLR 19/08 A3005 RMK AO2
KRZL 190115Z AUTO 36004KT 10SM CLR 20/08 A3005 RMK AO2
KRZL 190055Z AUTO 35005KT 10SM CLR 20/07 A3004 RMK AO2
KRZL 190035Z AUTO 35004KT 10SM CLR 21/07 A3005 RMK AO2
KRZL 190015Z AUTO 33003KT 10SM CLR 22/07 A3004 RMK AO2
KRZL 182355Z AUTO 33006KT 10SM CLR 23/06 A3004 RMK AO2
KRZL 182335Z AUTO 35005KT 10SM CLR 25/05 A3004 RMK AO2
KRZL 182315Z AUTO 34004KT 10SM CLR 25/05 A3004 RMK AO2
KRZL 182255Z AUTO 33006KT 10SM CLR 26/05 A3004 RMK AO2
KRZL 182235Z AUTO 33004KT 10SM CLR 26/06 A3004 RMK AO2
KRZL 182215Z AUTO 34004KT 10SM CLR 26/06 A3005 RMK AO2
KRZL 182155Z AUTO 01003KT 10SM CLR 26/06 A3005 RMK AO2
KRZL 182135Z AUTO 00000KT 10SM CLR 27/06 A3005 RMK AO2
KRZL 182115Z AUTO 03004KT 10SM CLR 27/06 A3006 RMK AO2
KRZL 182055Z AUTO 00000KT 10SM CLR 27/06 A3006 RMK AO2
KRZL 182035Z AUTO 00000KT 10SM CLR 26/06 A3007 RMK AO2
KRZL 182015Z AUTO 00000KT 10SM CLR 26/06 A3008 RMK AO2
KRZL 181955Z AUTO 00000KT 10SM CLR 26/06 A3009 RMK AO2
KRZL 181935Z AUTO 00000KT 10SM CLR 26/06 A3009 RMK AO2
KRZL 181915Z AUTO 00000KT 10SM CLR 26/07 A3009 RMK AO2
KRZL 181855Z AUTO 00000KT 10SM CLR 26/06 A3010 RMK AO2
KRZL 181835Z AUTO 01003KT 10SM CLR 25/05 A3010 RMK AO2
KRZL 181815Z AUTO 00000KT 10SM CLR 25/06 A3011 RMK AO2
KRZL 181755Z AUTO 00000KT 10SM CLR 25/07 A3011 RMK AO2
KRZL 181735Z AUTO 00000KT 10SM CLR 24/06 A3011 RMK AO2
KRZL 181715Z AUTO 04004KT 10SM CLR 25/07 A3011 RMK AO2
KRZL 181655Z AUTO 02006KT 10SM CLR 24/08 A3012 RMK AO2
KRZL 181635Z AUTO 00000KT 10SM CLR 24/07 A3012 RMK AO2
KRZL 181615Z AUTO 01006KT 10SM CLR 23/08 A3012 RMK AO2
KRZL 181555Z AUTO 03006KT 10SM CLR 23/08 A3012 RMK AO2
KRZL 181535Z AUTO 06007KT 10SM CLR 23/09 A3013 RMK AO2
KRZL 181515Z AUTO 36006KT 10SM CLR 23/09 A3012 RMK AO2
KRZL 181455Z AUTO 02007KT 351V051 10SM CLR 22/10 A3012 RMK AO2
KRZL 181435Z AUTO 03006KT 10SM CLR 22/11 A3012 RMK AO2
KRZL 181415Z AUTO 36004KT 10SM CLR 21/11 A3012 RMK AO2
KRZL 181355Z AUTO 01004KT 10SM CLR 20/11 A3012 RMK AO2
KRZL 181335Z AUTO 03004KT 10SM CLR 19/11 A3013 RMK AO2
KRZL 181315Z AUTO 03006KT 10SM CLR 18/11 A3013 RMK AO2
KRZL 181255Z AUTO 02004KT 10SM CLR 18/11 A3013 RMK AO2
KRZL 181235Z AUTO 02005KT 10SM CLR 17/11 A3013 RMK AO2
KRZL 181215Z AUTO 36004KT 10SM CLR 16/11 A3013 RMK AO2
KRZL 181155Z AUTO 36004KT 10SM CLR 15/11 A3013 RMK AO2
KRZL 181135Z AUTO 35003KT 10SM CLR 15/10 A3012 RMK AO2
KRZL 181115Z AUTO 34005KT 10SM CLR 13/10 A3012 RMK AO2
KRZL 181055Z AUTO 35004KT 10SM CLR 13/10 A3013 RMK AO2
KRZL 181035Z AUTO 33005KT 10SM CLR 13/10 A3012 RMK AO2
KRZL 181015Z AUTO 33005KT 10SM CLR 13/10 A3012 RMK AO2
KRZL 180955Z AUTO 31005KT 10SM CLR 12/10 A3012 RMK AO2
KRZL 180935Z AUTO 00000KT 10SM CLR 12/10 A3012 RMK AO2
KRZL 180915Z AUTO 32004KT 10SM CLR 13/10 A3012 RMK AO2
KRZL 180855Z AUTO 00000KT 10SM CLR 14/10 A3012 RMK AO2
KRZL 180835Z AUTO 33004KT 10SM CLR 15/10 A3011 RMK AO2
KRZL 180815Z AUTO 34003KT 10SM CLR 16/11 A3011 RMK AO2
KRZL 180755Z AUTO 35005KT 10SM CLR 15/10 A3010 RMK AO2
KRZL 180735Z AUTO 34004KT 10SM CLR 15/11 A3011 RMK AO2
KRZL 180715Z AUTO 35003KT 10SM CLR 15/11 A3011 RMK AO2
KRZL 180655Z AUTO 34005KT 10SM CLR 15/11 A3011 RMK AO2
KRZL 180635Z AUTO 33003KT 10SM CLR 15/11 A3011 RMK AO2
KRZL 180615Z AUTO 35004KT 10SM CLR 15/11 A3011 RMK AO2
KRZL 180555Z AUTO 00000KT 10SM CLR 14/11 A3011 RMK AO2
KRZL 180535Z AUTO 00000KT 10SM CLR 14/11 A3012 RMK AO2
KRZL 180515Z AUTO 00000KT 10SM CLR 15/11 A3012 RMK AO2
KRZL 180455Z AUTO 00000KT 10SM CLR 16/11 A3011 RMK AO2
KRZL 180435Z AUTO 01003KT 10SM CLR 17/11 A3011 RMK AO2
KRZL 180415Z AUTO 01004KT 10SM CLR 17/10 A3010 RMK AO2
KRZL 180355Z AUTO 01004KT 10SM CLR 17/10 A3010 RMK AO2
KRZL 180335Z AUTO 01004KT 10SM CLR 17/08 A3010 RMK AO2
KRZL 180315Z AUTO 01004KT 10SM CLR 18/08 A3010 RMK AO2
KRZL 180255Z AUTO 01004KT 10SM CLR 17/08 A3010 RMK AO2
KRZL 180235Z AUTO 35003KT 10SM CLR 17/09 A3010 RMK AO2
KRZL 180215Z AUTO 00000KT 10SM CLR 18/08 A3009 RMK AO2
KRZL 180155Z AUTO 01004KT 10SM CLR 19/08 A3008 RMK AO2
KRZL 180135Z AUTO 01004KT 10SM CLR 20/09 A3007 RMK AO2